createdAt,value
2023-03-29T05:48:32.985Z,12.00
2023-03-29T06:22:51.323Z,12.00
2023-03-29T06:27:07.058Z,12.00
2023-03-29T06:31:18.595Z,11.90
2023-03-29T06:35:32.684Z,12.00
2023-03-29T06:39:42.405Z,12.10
2023-03-29T06:44:04.380Z,12.10
2023-03-29T06:48:27.581Z,12.00
2023-03-29T06:52:37.803Z,12.10
2023-03-29T06:56:48.193Z,12.10
2023-03-29T07:01:11.624Z,12.20
2023-03-29T07:05:22.496Z,12.20
2023-03-29T07:09:36.197Z,12.30
2023-03-29T07:13:46.636Z,12.50
2023-03-29T07:17:58.063Z,12.60
2023-03-29T07:22:11.892Z,12.80
2023-03-29T07:26:28.910Z,12.90
2023-03-29T07:30:39.906Z,13.10
2023-03-29T07:34:52.059Z,13.20
2023-03-29T07:39:04.600Z,13.20
2023-03-29T07:43:22.513Z,13.20
2023-03-29T07:47:42.885Z,13.20
2023-03-29T07:52:00.287Z,13.20
2023-03-29T07:56:13.296Z,13.20
2023-03-29T08:00:30.415Z,13.20
2023-03-29T08:04:49.242Z,13.20
2023-03-29T08:09:01.170Z,13.30
2023-03-29T08:13:12.189Z,13.40
2023-03-29T08:17:21.710Z,13.50
2023-03-29T08:21:34.972Z,13.70
2023-03-29T08:25:49.366Z,13.80
2023-03-29T08:29:58.934Z,13.80
2023-03-29T08:34:08.346Z,13.90
2023-03-29T08:38:18.982Z,14.00
2023-03-29T08:42:53.270Z,14.10
2023-03-29T08:51:25.805Z,14.50
2023-03-29T08:55:40.006Z,14.70
2023-03-29T08:59:54.412Z,14.80
2023-03-29T09:04:09.172Z,14.80
2023-03-29T09:08:21.605Z,15.00
2023-03-29T09:12:45.971Z,15.00
2023-03-29T09:17:04.567Z,14.90
2023-03-29T09:21:21.904Z,14.80
2023-03-29T09:25:53.190Z,14.70
2023-03-29T09:30:19.774Z,14.70
2023-03-29T09:34:39.855Z,14.80
2023-03-29T09:38:57.725Z,14.80
2023-03-29T09:43:11.379Z,15.00
2023-03-29T09:47:55.215Z,15.10
2023-03-29T10:02:12.986Z,15.00
2023-03-29T10:11:40.766Z,15.20
2023-03-29T10:16:08.272Z,15.20
2023-03-29T10:20:23.823Z,15.30
2023-03-29T10:24:37.432Z,15.30
2023-03-29T10:28:52.085Z,15.50
2023-03-29T10:33:04.101Z,15.60
2023-03-29T10:37:19.478Z,15.50
2023-03-29T10:41:34.199Z,15.60
2023-03-29T10:45:44.697Z,15.50
2023-03-29T10:49:59.075Z,15.50
2023-03-29T10:54:15.635Z,15.50
2023-03-29T10:58:38.149Z,15.30
2023-03-29T11:03:06.554Z,15.10
2023-03-29T11:07:29.717Z,15.00
2023-03-29T11:12:04.434Z,14.90
2023-03-29T11:16:32.861Z,14.80
2023-03-29T11:20:48.418Z,14.90
2023-03-29T11:25:22.425Z,14.80
2023-03-29T11:29:38.529Z,14.80
2023-03-29T11:34:06.880Z,14.80
2023-03-29T11:38:28.827Z,14.90
2023-03-29T11:42:46.687Z,15.10
2023-03-29T11:47:02.011Z,15.50
2023-03-29T11:51:21.479Z,15.80
2023-03-29T12:00:31.533Z,16.00
2023-03-29T12:10:13.280Z,16.00
2023-03-29T12:28:45.303Z,15.80
2023-03-29T12:33:26.686Z,15.80
2023-03-29T12:38:00.926Z,15.80
2023-03-29T12:42:19.559Z,15.90
2023-03-29T12:47:02.115Z,15.90
2023-03-29T12:52:05.187Z,16.00
2023-03-29T13:01:42.114Z,16.40
2023-03-29T13:06:04.126Z,16.40
2023-03-29T13:10:39.099Z,16.40
2023-03-29T13:15:00.562Z,16.30
2023-03-29T13:20:52.497Z,16.40
2023-03-29T13:26:05.710Z,16.50
2023-03-29T13:30:46.863Z,16.20
2023-03-29T13:54:43.797Z,15.80
2023-03-29T14:09:10.349Z,15.50
2023-03-29T14:29:35.819Z,15.10
2023-03-29T14:34:15.361Z,14.90
2023-03-29T14:39:27.798Z,14.70
2023-03-29T14:44:33.515Z,14.60
2023-03-29T15:14:45.623Z,14.80
2023-03-29T15:19:06.033Z,15.10
2023-03-29T15:23:42.759Z,15.00
2023-03-29T15:28:00.260Z,14.70
2023-03-29T15:32:32.621Z,14.50
2023-03-29T15:36:45.680Z,14.50
2023-03-29T15:41:02.567Z,14.40
2023-03-29T15:45:18.318Z,14.70
2023-03-29T15:49:29.953Z,14.80
2023-03-29T15:53:40.211Z,14.90
2023-03-29T15:58:08.337Z,14.90
2023-03-29T16:02:24.531Z,14.70
2023-03-29T16:06:41.694Z,14.60
2023-03-29T16:11:01.595Z,14.50
2023-03-29T16:15:34.257Z,14.40
2023-03-29T16:20:04.683Z,14.20
2023-03-29T16:24:54.647Z,14.10
2023-03-29T17:14:25.436Z,13.70
2023-03-29T18:14:53.200Z,13.20
2023-03-29T18:20:05.481Z,13.10
2023-03-29T18:25:11.270Z,13.10
2023-03-29T18:34:24.783Z,13.10
2023-03-29T19:48:56.625Z,13.20
2023-03-29T20:08:26.816Z,13.10
2023-03-29T20:12:57.877Z,13.10
2023-03-29T20:17:17.381Z,13.00
2023-03-29T20:27:24.857Z,13.00
2023-03-29T20:32:23.680Z,13.00
2023-03-29T20:36:58.932Z,13.00
2023-03-29T20:42:15.314Z,13.00
2023-03-29T20:47:03.293Z,13.00
2023-03-29T20:51:51.610Z,13.00
2023-03-29T20:56:40.256Z,13.00
2023-03-29T21:01:16.471Z,13.00
2023-03-29T22:07:06.490Z,13.10
2023-03-29T22:11:44.466Z,13.00
2023-03-29T22:16:28.369Z,13.10
2023-03-29T22:26:23.426Z,13.10
2023-03-29T22:31:16.524Z,13.10
2023-03-29T22:35:52.915Z,13.10
2023-03-29T22:40:36.121Z,13.10
2023-03-29T22:45:08.173Z,13.00
2023-03-29T22:49:30.424Z,13.00
2023-03-29T22:54:03.539Z,13.00
2023-03-29T22:58:32.473Z,13.10
2023-03-29T23:02:58.883Z,13.10
2023-03-29T23:07:46.225Z,13.00
2023-03-29T23:12:12.026Z,13.10
2023-03-29T23:16:29.764Z,12.90
2023-03-29T23:21:03.541Z,12.90
2023-03-29T23:25:45.043Z,12.90
2023-03-29T23:30:23.020Z,12.90
2023-03-29T23:34:54.328Z,12.90
2023-03-29T23:49:02.834Z,12.90
2023-03-29T23:54:10.435Z,12.90
2023-03-29T23:59:04.514Z,12.90
